Ana Sayfa
METAR-TAF:

METAR-TAF

Havaalanları :

Northeast Philadelphia Airport

Philadelphia, Pensilvanya, Amerika Birleşik Devletleri

Enlem: 40-04-44N, Boylam: 075-00-49W, yükseklik: 36 m

Güncel hava durumu gözlemi

Rapor saat 06:54 UTC de 51 dakika önce yapıldı.
Rüzgar batı/güneybatıdan 3 kt
Sıcaklık 1°C
Nem 51%
Basınç 1024 hPa
Görüş mesafesi: 16.1 km
Açık gökyüzü

METAR: KPNE 230654Z AUTO 24003KT 10SM CLR 01/M08 A3025 RMK AO2 SLP243 T00061083

Saat: 02:45 (07:45 UTC)

Tahmin

Rapor saat 05:20 UTC de 2 saat ve 25 dakika önce yapıldı.
Ayın 23'si saat 06 UTC'den ayın 24'si saat 06 UTC'ye kadar geçerli Tahmin
Rüzgar güneybatıdan 5 kt
Görüş mesafesi: 10 km
Açık gökyüzü

TAF: KPNE 230520Z 2306/2406 23005KT P6SM SKC

4.000'den fazla havaalanı için hava durumu gözlemleri ve tahminleri (METAR ve TAF raporları).

Kullanılabilir istasyonlar harita üzerinde sarı ve kırmızı noktalarla gösterilir.

İstasyonun adını görmek için fareyi noktanın üzerinde gezdirin.

Sonrasında hava gözlem ve tahminlerini görmek için tıklayın.

Haritayı değiştirmek için: yaklaştırmak için siyah artı işaretli yeşil düğmeye ve uzaklaştırmak için de eksi işaretli düğmeye hızla tıklayın; bitişik haritalar için yeşil okları kullanın.


METAR-TAF: